Mililani, Hawaii
Current Conditions -  °F | °C
As of 5:58 AM on Sunday 21 Dec 2014 (Local Time) from PHHI Reporting Station
Broken Clouds Broken Clouds  
Wind Chill: 67°   Ceiling: 4700
Heat Index: 67°   Visibility: 10mi
Dew Point: 63°   Wind: 3mph
Humidity: 88%   Direction: 330°NNW
Pressure: 30.04"   Gusts: NA
Location:  21.45°N, 158.02°W
Report Text: PHHI 211558Z AUTO 33003KT 10SM BKN047 19/17 A3004 RMK AO2 SLP165 T01920172 $
Loading
Personal Weather Stations






























Interactive Weather Map New forecast layout! Learn more

10-Day Weather Forecast

Advertisements
Track Severe Weather on mobile